createdAt,value
2019-06-08T00:00:13.233Z,15.24
2019-06-08T00:05:20.940Z,14.93
2019-06-08T00:10:27.647Z,15.17
2019-06-08T00:15:33.793Z,15.22
2019-06-08T00:20:40.202Z,15.03
2019-06-08T00:25:46.570Z,15.15
2019-06-08T00:30:52.735Z,14.82
2019-06-08T00:35:59.646Z,14.82
2019-06-08T00:41:06.119Z,14.85
2019-06-08T00:46:12.906Z,14.91
2019-06-08T00:51:21.014Z,15.10
2019-06-08T00:56:28.126Z,14.71
2019-06-08T01:01:35.223Z,14.79
2019-06-08T01:06:41.615Z,15.08
2019-06-08T01:11:48.172Z,15.21
2019-06-08T01:16:55.138Z,15.07
2019-06-08T01:22:01.607Z,15.00
2019-06-08T01:27:07.810Z,14.84
2019-06-08T01:32:14.549Z,14.98
2019-06-08T01:37:22.858Z,15.05
2019-06-08T01:42:29.775Z,15.05
2019-06-08T01:47:36.183Z,15.05
2019-06-08T01:52:42.591Z,15.08
2019-06-08T01:57:49.219Z,15.23
2019-06-08T02:02:56.010Z,15.51
2019-06-08T02:08:02.713Z,15.20
2019-06-08T02:13:09.514Z,15.06
2019-06-08T02:18:16.639Z,15.23
2019-06-08T02:23:22.807Z,14.75
2019-06-08T02:28:29.449Z,14.91
2019-06-08T02:33:37.234Z,14.93
2019-06-08T02:38:44.187Z,15.25
2019-06-08T02:43:51.391Z,15.13
2019-06-08T02:49:04.054Z,15.21
2019-06-08T02:54:06.620Z,15.36
2019-06-08T02:59:14.783Z,15.38
2019-06-08T03:04:23.969Z,15.14
2019-06-08T03:09:32.458Z,15.18
2019-06-08T03:14:42.131Z,15.14
2019-06-08T03:19:48.651Z,15.28
2019-06-08T03:24:54.820Z,15.05
2019-06-08T03:30:15.149Z,14.81
2019-06-08T03:35:09.414Z,14.89
2019-06-08T03:40:15.953Z,14.82
2019-06-08T03:45:22.563Z,14.73
2019-06-08T03:50:28.852Z,14.77
2019-06-08T03:55:35.498Z,14.72
2019-06-08T04:00:42.434Z,14.92
2019-06-08T04:05:50.089Z,14.91
2019-06-08T04:10:56.474Z,15.05
2019-06-08T04:16:06.266Z,14.98
2019-06-08T04:21:15.544Z,14.68
2019-06-08T04:26:58.675Z,14.75
2019-06-08T04:32:05.045Z,14.55
2019-06-08T04:37:15.749Z,14.72
2019-06-08T04:42:20.141Z,14.62
2019-06-08T04:47:26.620Z,14.59
2019-06-08T04:52:32.982Z,14.65
2019-06-08T04:57:41.881Z,14.62
2019-06-08T05:02:50.380Z,14.40
2019-06-08T05:07:56.335Z,14.49
2019-06-08T05:13:03.038Z,14.51
2019-06-08T05:18:09.423Z,14.53
2019-06-08T05:23:15.931Z,14.67
2019-06-08T05:28:22.718Z,14.60
2019-06-08T05:33:28.864Z,14.60
2019-06-08T05:38:35.761Z,14.73
2019-06-08T05:43:43.523Z,14.74
2019-06-08T05:48:50.522Z,14.55
2019-06-08T05:53:56.856Z,14.66
2019-06-08T05:59:03.855Z,14.68
2019-06-08T06:04:10.657Z,14.77
2019-06-08T06:09:17.087Z,14.65
2019-06-08T06:14:23.712Z,14.73
2019-06-08T06:19:30.098Z,14.92
2019-06-08T06:24:36.377Z,14.81
2019-06-08T06:29:43.499Z,14.75
2019-06-08T06:34:50.060Z,14.75
2019-06-08T06:39:56.523Z,14.79
2019-06-08T06:45:02.710Z,14.94
2019-06-08T06:50:09.206Z,14.87
2019-06-08T06:55:15.576Z,14.92
2019-06-08T07:00:31.343Z,14.85
2019-06-08T07:05:37.685Z,15.07
2019-06-08T07:10:44.587Z,15.24
2019-06-08T07:15:55.995Z,15.27
2019-06-08T07:21:00.449Z,15.37
2019-06-08T07:26:07.104Z,15.36
2019-06-08T07:31:13.192Z,15.61
2019-06-08T07:36:19.554Z,15.56
2019-06-08T07:41:25.850Z,15.72
2019-06-08T07:46:31.950Z,15.81
2019-06-08T07:51:38.392Z,16.00
2019-06-08T07:56:46.077Z,16.07
2019-06-08T08:01:53.991Z,16.07
2019-06-08T08:07:01.032Z,15.81
2019-06-08T08:12:07.508Z,16.00
2019-06-08T08:17:18.885Z,16.13
2019-06-08T08:22:29.600Z,16.24
2019-06-08T08:27:37.798Z,15.96
2019-06-08T08:32:52.703Z,16.57
2019-06-08T08:38:03.020Z,16.61
2019-06-08T08:43:09.410Z,16.90
2019-06-08T08:48:25.390Z,17.12
2019-06-08T08:53:24.080Z,17.32
2019-06-08T08:58:30.725Z,17.49
2019-06-08T09:03:39.372Z,17.08
2019-06-08T09:08:45.264Z,17.46
2019-06-08T09:13:52.389Z,17.60
2019-06-08T09:19:03.993Z,18.25
2019-06-08T09:24:07.896Z,17.90
2019-06-08T09:29:14.483Z,18.76
2019-06-08T09:34:21.073Z,18.59
2019-06-08T09:39:28.660Z,18.39
2019-06-08T09:44:37.647Z,18.26
2019-06-08T09:49:44.605Z,18.17
2019-06-08T09:54:54.164Z,19.13
2019-06-08T10:00:04.363Z,19.08
2019-06-08T10:05:08.053Z,19.73
2019-06-08T10:10:14.764Z,19.99
2019-06-08T10:15:20.944Z,18.65
2019-06-08T10:20:28.796Z,20.56
2019-06-08T10:25:38.381Z,19.91
2019-06-08T10:30:43.797Z,19.90
2019-06-08T10:35:49.966Z,20.12
2019-06-08T10:41:12.042Z,19.90
2019-06-08T10:46:16.685Z,20.27
2019-06-08T10:51:19.487Z,20.66
2019-06-08T10:56:28.390Z,21.25
2019-06-08T11:01:34.166Z,21.14
2019-06-08T11:06:40.980Z,19.79
2019-06-08T11:11:48.273Z,21.33
2019-06-08T11:16:54.560Z,21.25
2019-06-08T11:22:03.740Z,21.02
2019-06-08T11:27:12.493Z,20.71
2019-06-08T11:32:18.369Z,21.21
2019-06-08T11:37:25.093Z,21.40
2019-06-08T11:42:31.281Z,21.50
2019-06-08T11:47:39.172Z,21.77
2019-06-08T11:52:45.277Z,21.05
2019-06-08T11:57:51.603Z,20.80
2019-06-08T12:02:58.246Z,21.24
2019-06-08T12:08:04.899Z,21.35
2019-06-08T12:13:13.212Z,22.31
2019-06-08T12:18:20.028Z,22.13
2019-06-08T12:23:26.794Z,22.62
2019-06-08T12:28:33.319Z,22.58
2019-06-08T12:33:39.688Z,22.25
2019-06-08T12:38:48.558Z,22.33
2019-06-08T12:43:54.591Z,22.13
2019-06-08T12:49:00.917Z,22.65
2019-06-08T12:59:23.096Z,22.18
2019-06-08T13:04:29.203Z,22.58
2019-06-08T13:09:37.962Z,22.93
2019-06-08T13:14:43.195Z,22.83
2019-06-08T13:19:50.019Z,22.33
2019-06-08T13:24:56.116Z,22.57
2019-06-08T13:30:03.150Z,22.54
2019-06-08T13:35:10.422Z,23.24
2019-06-08T13:40:20.093Z,22.90
2019-06-08T13:45:27.825Z,22.68
2019-06-08T13:50:34.263Z,23.21
2019-06-08T13:55:53.336Z,22.81
2019-06-08T14:00:48.760Z,22.65
2019-06-08T14:05:54.940Z,22.44
2019-06-08T14:11:01.398Z,22.55
2019-06-08T14:16:08.890Z,22.88
2019-06-08T14:21:25.755Z,23.34
2019-06-08T14:26:25.988Z,22.86
2019-06-08T14:31:32.321Z,23.54
2019-06-08T14:36:40.974Z,23.55
2019-06-08T14:41:47.529Z,23.30
2019-06-08T14:46:54.983Z,23.40
2019-06-08T14:52:01.375Z,23.22
2019-06-08T14:57:07.961Z,23.39
2019-06-08T15:02:14.668Z,23.39
2019-06-08T15:07:23.425Z,23.55
2019-06-08T15:12:31.319Z,23.55
2019-06-08T15:17:37.945Z,23.99
2019-06-08T15:22:44.615Z,23.91
2019-06-08T15:27:51.405Z,23.64
2019-06-08T15:32:58.859Z,23.53
2019-06-08T15:38:05.398Z,22.87
2019-06-08T15:43:12.062Z,23.80
2019-06-08T15:48:20.404Z,23.54
2019-06-08T15:53:29.679Z,22.92
2019-06-08T15:58:35.056Z,22.59
2019-06-08T16:03:41.395Z,23.08
2019-06-08T16:08:47.884Z,23.31
2019-06-08T16:13:54.907Z,23.38
2019-06-08T16:19:01.468Z,23.25
2019-06-08T16:24:07.698Z,23.03
2019-06-08T16:29:14.129Z,22.84
2019-06-08T16:34:20.583Z,23.21
2019-06-08T16:39:26.988Z,22.29
2019-06-08T16:44:34.296Z,22.50
2019-06-08T16:49:40.679Z,22.88
2019-06-08T16:54:47.473Z,22.83
2019-06-08T16:59:53.922Z,23.16
2019-06-08T17:04:59.973Z,23.36
2019-06-08T17:10:06.743Z,22.94
2019-06-08T17:15:14.112Z,22.61
2019-06-08T17:20:20.346Z,22.36
2019-06-08T17:25:26.798Z,22.50
2019-06-08T17:30:35.463Z,22.08
2019-06-08T17:35:42.488Z,21.83
2019-06-08T17:40:49.190Z,22.03
2019-06-08T17:45:55.504Z,21.90
2019-06-08T17:51:02.402Z,21.94
2019-06-08T17:56:09.189Z,21.70
2019-06-08T18:01:16.176Z,21.61
2019-06-08T18:06:23.537Z,21.49
2019-06-08T18:11:29.927Z,20.98
2019-06-08T18:16:38.959Z,20.94
2019-06-08T18:21:44.594Z,20.77
2019-06-08T18:26:53.295Z,20.61
2019-06-08T18:31:59.458Z,20.59
2019-06-08T18:37:08.412Z,20.43
2019-06-08T18:42:14.612Z,20.34
2019-06-08T18:47:20.783Z,20.09
2019-06-08T18:52:28.251Z,20.03
2019-06-08T18:57:35.401Z,19.80
2019-06-08T19:02:44.906Z,19.42
2019-06-08T19:07:52.240Z,19.27
2019-06-08T19:12:58.684Z,19.06
2019-06-08T19:18:07.936Z,19.00
2019-06-08T19:23:13.390Z,18.77
2019-06-08T19:28:35.282Z,18.61
2019-06-08T19:33:28.153Z,18.43
2019-06-08T19:38:34.627Z,18.44
2019-06-08T19:43:42.973Z,18.20
2019-06-08T19:48:54.292Z,17.92
2019-06-08T19:53:58.373Z,17.27
2019-06-08T19:59:06.249Z,17.17
2019-06-08T20:04:13.020Z,17.03
2019-06-08T20:09:19.434Z,16.67
2019-06-08T20:14:26.651Z,16.10
2019-06-08T20:19:32.980Z,16.16
2019-06-08T20:24:39.342Z,16.12
2019-06-08T20:29:47.846Z,16.06
2019-06-08T20:34:53.837Z,16.10
2019-06-08T20:40:10.269Z,15.42
2019-06-08T20:45:08.527Z,15.27
2019-06-08T20:50:14.811Z,14.88
2019-06-08T20:55:21.410Z,15.04
2019-06-08T21:00:28.288Z,15.14
2019-06-08T21:05:34.750Z,15.04
2019-06-08T21:10:41.105Z,14.58
2019-06-08T21:15:52.600Z,14.73
2019-06-08T21:20:58.130Z,14.78
2019-06-08T21:26:04.367Z,14.70
2019-06-08T21:31:10.728Z,14.39
2019-06-08T21:36:18.198Z,13.93
2019-06-08T21:41:24.422Z,13.96
2019-06-08T21:46:31.411Z,13.87
2019-06-08T21:51:38.347Z,13.92
2019-06-08T21:56:44.435Z,13.20
2019-06-08T22:01:53.042Z,13.12
2019-06-08T22:07:01.135Z,13.36
2019-06-08T22:12:07.257Z,13.37
2019-06-08T22:17:15.962Z,13.07
2019-06-08T22:22:21.825Z,13.17
2019-06-08T22:27:28.369Z,12.73
2019-06-08T22:32:35.118Z,12.63
2019-06-08T22:37:42.043Z,12.37
2019-06-08T22:42:48.255Z,12.64
2019-06-08T22:47:57.478Z,12.81
2019-06-08T22:53:03.963Z,12.63
2019-06-08T22:58:10.811Z,12.42
2019-06-08T23:03:18.425Z,12.25
2019-06-08T23:08:25.609Z,12.09
2019-06-08T23:13:32.059Z,12.18
2019-06-08T23:18:38.547Z,12.35
2019-06-08T23:23:47.470Z,12.18
2019-06-08T23:28:53.521Z,12.38
2019-06-08T23:34:03.920Z,12.25
2019-06-08T23:39:09.411Z,11.90
2019-06-08T23:44:17.613Z,11.75
2019-06-08T23:49:24.454Z,11.61
2019-06-08T23:54:30.980Z,11.59
2019-06-08T23:59:37.794Z,11.26
